This is the latest recevied weather packets stored in our database for station/object IQ5KG. If no packets are shown the sender has not sent any weather packets the latest 1 day(s).
| Time | Temp. | Humidity | Pressure | Rain* | Wind** | Luminosity | Snow |
|---|---|---|---|---|---|---|---|
| 1836274506 | 19.44° C | 85% | 1023.6 hPa | 0 mm | 4.02 m/s, 48° | - | - |
| 1836274356 | 19.44° C | 83% | 1023.6 hPa | 0 mm | 2.68 m/s, 43° | - | - |
| 1778019443 | 15.56° C | 99% | 1013.3 hPa | 0 mm | 0 m/s | - | - |
| 1778018543 | 15.56° C | 99% | 1013.3 hPa | 0 mm | 4.02 m/s, 155° | - | - |
| 1778017642 | 15.56° C | 99% | 1013.1 hPa | 4.32 mm | 3.13 m/s, 155° | - | - |
| 1778016742 | 15.56° C | 99% | 1013.5 hPa | 5.08 mm | 2.24 m/s, 155° | - | - |
| 1778015843 | 15.56° C | 98% | 1013.2 hPa | 5.08 mm | 0 m/s | - | - |
| 1778014942 | 15.56° C | 98% | 1013.7 hPa | 5.08 mm | 0.45 m/s, 155° | - | - |
| 1778014042 | 16.11° C | 98% | 1013.6 hPa | 1.27 mm | 2.24 m/s, 155° | - | - |
| 1778013141 | 15.56° C | 98% | 1013.4 hPa | 6.86 mm | 0.89 m/s, 155° | - | - |
| 1778012242 | 16.11° C | 98% | 1013.5 hPa | 12.19 mm | 1.34 m/s, 156° | - | - |
| 1778011341 | 16.11° C | 97% | 1013.6 hPa | 14.73 mm | 0.89 m/s, 156° | - | - |
| 1778010442 | 16.11° C | 97% | 1013.8 hPa | 14.48 mm | 2.68 m/s, 156° | - | - |
| 1778009542 | 16.11° C | 96% | 1013.4 hPa | 7.87 mm | 3.13 m/s, 156° | - | - |
| 1778008642 | 16.67° C | 95% | 1013.2 hPa | 2.29 mm | 1.34 m/s, 156° | - | - |
| 1778007741 | 16.67° C | 95% | 1013.2 hPa | 0.25 mm | 0 m/s | - | - |
| 1778006842 | 16.67° C | 94% | 1013.3 hPa | 0.25 mm | 0.89 m/s, 211° | - | - |
| 1778006003 | 16.67° C | 93% | 1013.2 hPa | 0.25 mm | 2.24 m/s, 237° | - | - |
| 1778005102 | 16.67° C | 92% | 1013.2 hPa | 0.25 mm | 1.34 m/s, 235° | - | - |
| 1778004203 | 17.22° C | 90% | 1012.9 hPa | 0 mm | 2.24 m/s, 252° | - | - |
| 1778003301 | 17.22° C | 89% | 1013 hPa | 0 mm | 1.34 m/s, 249° | - | - |
| 1778002401 | 17.22° C | 88% | 1013 hPa | 0 mm | 2.24 m/s, 282° | - | - |
| 1778001502 | 17.78° C | 87% | 1013.1 hPa | 0 mm | 1.34 m/s, 243° | - | - |
| 1778000602 | 17.78° C | 86% | 1013 hPa | 0 mm | 2.24 m/s, 265° | - | - |
| 1777999700 | 18.33° C | 86% | 1013 hPa | 0 mm | 3.58 m/s, 246° | - | - |
* Rain latest hour (hover to see other rain measurements)
** Current wind speed in m/s (hover to see current wind gust speed)